createdAt,value
2022-10-13T00:00:20.207Z,7.37
2022-10-13T00:03:12.774Z,7.34
2022-10-13T00:05:46.860Z,7.34
2022-10-13T00:08:21.707Z,7.34
2022-10-13T00:10:53.724Z,7.34
2022-10-13T00:13:29.144Z,7.31
2022-10-13T00:16:03.262Z,7.30
2022-10-13T00:18:35.665Z,7.30
2022-10-13T00:21:11.726Z,7.30
2022-10-13T00:23:44.405Z,7.30
2022-10-13T00:26:17.742Z,7.28
2022-10-13T00:28:53.207Z,7.27
2022-10-13T00:31:26.944Z,7.25
2022-10-13T00:34:01.167Z,7.25
2022-10-13T00:36:33.118Z,7.24
2022-10-13T00:39:05.426Z,7.22
2022-10-13T00:41:37.517Z,7.19
2022-10-13T00:44:47.039Z,7.18
2022-10-13T00:47:19.334Z,7.12
2022-10-13T00:49:52.703Z,7.10
2022-10-13T00:52:26.741Z,7.09
2022-10-13T00:55:00.333Z,7.08
2022-10-13T00:57:32.698Z,7.06
2022-10-13T01:00:06.367Z,7.04
2022-10-13T01:02:39.878Z,7.02
2022-10-13T01:05:12.094Z,6.99
2022-10-13T01:07:44.893Z,6.98
2022-10-13T01:10:24.945Z,6.96
2022-10-13T01:13:05.663Z,6.94
2022-10-13T01:15:46.505Z,6.91
2022-10-13T01:18:27.363Z,6.87
2022-10-13T01:21:11.358Z,6.82
2022-10-13T01:24:05.034Z,6.78
2022-10-13T01:26:54.171Z,6.76
2022-10-13T01:29:45.045Z,6.74
2022-10-13T01:32:24.206Z,6.72
2022-10-13T01:35:06.266Z,6.71
2022-10-13T01:37:48.592Z,6.70
2022-10-13T01:40:27.559Z,6.68
2022-10-13T01:43:05.380Z,6.69
2022-10-13T01:45:41.438Z,6.70
2022-10-13T01:48:14.321Z,6.68
2022-10-13T01:50:48.020Z,6.67
2022-10-13T01:53:21.678Z,6.67
2022-10-13T01:56:00.946Z,6.66
2022-10-13T01:58:36.800Z,6.65
2022-10-13T02:01:25.727Z,6.65
2022-10-13T02:04:09.397Z,6.61
2022-10-13T02:06:45.878Z,6.59
2022-10-13T02:09:26.535Z,6.59
2022-10-13T02:12:03.150Z,6.58
2022-10-13T02:14:42.105Z,6.57
2022-10-13T02:17:14.342Z,6.57
2022-10-13T02:19:49.062Z,6.56
2022-10-13T02:22:23.500Z,6.56
2022-10-13T02:24:55.609Z,6.55
2022-10-13T02:27:27.856Z,6.55
2022-10-13T02:30:00.092Z,6.51
2022-10-13T02:32:34.835Z,6.48
2022-10-13T02:35:09.888Z,6.45
2022-10-13T02:37:41.730Z,6.44
2022-10-13T02:40:14.993Z,6.42
2022-10-13T02:42:46.836Z,6.40
2022-10-13T02:45:18.696Z,6.38
2022-10-13T02:47:50.551Z,6.36
2022-10-13T02:50:22.388Z,6.35
2022-10-13T02:52:55.622Z,6.34
2022-10-13T02:55:27.419Z,6.30
2022-10-13T02:58:01.992Z,6.29
2022-10-13T03:00:34.269Z,6.28
2022-10-13T03:03:06.635Z,6.30
2022-10-13T03:05:38.482Z,6.32
2022-10-13T03:08:10.684Z,6.32
2022-10-13T03:10:42.711Z,6.32
2022-10-13T03:13:14.594Z,6.32
2022-10-13T03:15:49.052Z,6.33
2022-10-13T03:18:21.084Z,6.32
2022-10-13T03:21:00.592Z,6.31
2022-10-13T03:23:35.361Z,6.29
2022-10-13T03:26:10.275Z,6.27
2022-10-13T03:28:42.089Z,6.24
2022-10-13T03:31:14.502Z,6.21
2022-10-13T03:33:47.075Z,6.18
2022-10-13T03:36:19.625Z,6.16
2022-10-13T03:38:54.319Z,6.16
2022-10-13T03:41:26.662Z,6.16
2022-10-13T03:43:58.448Z,6.16
2022-10-13T03:46:32.789Z,6.15
2022-10-13T03:49:04.721Z,6.12
2022-10-13T03:51:36.457Z,6.08
2022-10-13T03:54:08.955Z,6.06
2022-10-13T03:56:42.430Z,6.04
2022-10-13T03:59:16.826Z,6.03
2022-10-13T04:01:48.862Z,6.05
2022-10-13T04:04:20.872Z,6.05
2022-10-13T04:06:53.846Z,6.05
2022-10-13T04:09:25.789Z,6.05
2022-10-13T04:11:57.823Z,6.05
2022-10-13T04:14:29.650Z,6.05
2022-10-13T04:17:06.993Z,6.03
2022-10-13T04:19:39.127Z,6.01
2022-10-13T04:22:10.972Z,5.98
2022-10-13T04:24:43.254Z,5.98
2022-10-13T04:27:16.962Z,5.98
2022-10-13T04:29:48.699Z,5.96
2022-10-13T04:32:20.605Z,5.95
2022-10-13T04:34:52.782Z,5.95
2022-10-13T04:37:24.646Z,5.94
2022-10-13T04:39:57.034Z,5.93
2022-10-13T04:42:28.898Z,5.93
2022-10-13T04:45:01.254Z,5.92
2022-10-13T04:47:36.870Z,5.91
2022-10-13T04:50:10.696Z,5.87
2022-10-13T04:52:42.559Z,5.83
2022-10-13T04:55:14.493Z,5.81
2022-10-13T04:57:46.252Z,5.80
2022-10-13T05:00:18.981Z,5.79
2022-10-13T05:02:51.147Z,5.77
2022-10-13T05:05:23.139Z,5.76
2022-10-13T05:07:57.360Z,5.76
2022-10-13T05:10:33.873Z,5.72
2022-10-13T05:13:07.201Z,5.70
2022-10-13T05:15:41.381Z,5.71
2022-10-13T05:18:13.522Z,5.70
2022-10-13T05:20:46.602Z,5.70
2022-10-13T05:23:18.882Z,5.69
2022-10-13T05:25:50.627Z,5.69
2022-10-13T05:28:23.063Z,5.67
2022-10-13T05:30:54.984Z,5.65
2022-10-13T05:33:27.841Z,5.64
2022-10-13T05:36:06.753Z,5.65
2022-10-13T05:38:41.078Z,5.65
2022-10-13T05:41:15.094Z,5.65
2022-10-13T05:43:46.899Z,5.64
2022-10-13T05:46:19.263Z,5.65
2022-10-13T05:48:51.513Z,5.65
2022-10-13T05:51:26.064Z,5.66
2022-10-13T05:54:05.717Z,5.66
2022-10-13T05:56:43.414Z,5.67
2022-10-13T05:59:23.331Z,5.66
2022-10-13T06:01:58.313Z,5.65
2022-10-13T06:04:36.979Z,5.65
2022-10-13T06:07:10.460Z,5.67
2022-10-13T06:09:44.357Z,5.68
2022-10-13T06:15:02.443Z,5.73
2022-10-13T06:17:36.792Z,5.75
2022-10-13T06:20:11.825Z,5.75
2022-10-13T06:22:44.397Z,5.77
2022-10-13T06:25:16.218Z,5.81
2022-10-13T06:27:47.935Z,5.86
2022-10-13T06:30:20.168Z,5.89
2022-10-13T06:32:51.905Z,5.92
2022-10-13T06:35:24.357Z,5.93
2022-10-13T06:37:56.171Z,5.95
2022-10-13T06:40:27.967Z,5.99
2022-10-13T06:42:59.838Z,6.03
2022-10-13T06:45:34.379Z,6.06
2022-10-13T06:48:06.495Z,6.10
2022-10-13T06:50:42.695Z,6.13
2022-10-13T06:53:14.779Z,6.17
2022-10-13T06:55:50.236Z,6.23
2022-10-13T06:58:24.350Z,6.28
2022-10-13T07:00:56.766Z,6.32
2022-10-13T07:03:28.690Z,6.39
2022-10-13T07:06:05.278Z,6.44
2022-10-13T07:08:37.999Z,6.49
2022-10-13T07:11:15.950Z,6.53
2022-10-13T07:13:55.124Z,6.59
2022-10-13T07:16:26.926Z,6.66
2022-10-13T07:18:58.696Z,6.72
2022-10-13T07:21:30.815Z,6.80
2022-10-13T07:24:04.374Z,6.87
2022-10-13T07:26:36.766Z,6.94
2022-10-13T07:29:08.716Z,7.01
2022-10-13T07:31:40.572Z,7.09
2022-10-13T07:34:12.444Z,7.15
2022-10-13T07:36:44.410Z,7.23
2022-10-13T07:39:16.223Z,7.30
2022-10-13T07:41:51.099Z,7.36
2022-10-13T07:44:24.023Z,7.44
2022-10-13T07:46:55.840Z,7.51
2022-10-13T07:49:28.137Z,7.58
2022-10-13T07:51:59.916Z,7.66
2022-10-13T07:54:32.171Z,7.74
2022-10-13T07:57:04.373Z,7.81
2022-10-13T07:59:36.365Z,7.89
2022-10-13T08:02:10.105Z,7.97
2022-10-13T08:04:41.921Z,8.06
2022-10-13T08:07:13.971Z,8.13
2022-10-13T08:09:47.052Z,8.22
2022-10-13T08:12:22.325Z,8.28
2022-10-13T08:14:58.469Z,8.35
2022-10-13T08:17:33.172Z,8.42
2022-10-13T08:20:05.599Z,8.49
2022-10-13T08:22:37.385Z,8.57
2022-10-13T08:25:10.955Z,8.65
2022-10-13T08:27:51.067Z,8.72
2022-10-13T08:30:23.570Z,8.81
2022-10-13T08:32:55.476Z,8.90
2022-10-13T08:35:29.200Z,8.98
2022-10-13T08:38:04.667Z,9.07
2022-10-13T08:40:36.968Z,9.16
2022-10-13T08:43:10.207Z,9.25
2022-10-13T08:45:42.499Z,9.35
2022-10-13T08:48:19.498Z,9.44
2022-10-13T08:50:56.134Z,9.52
2022-10-13T08:53:34.678Z,9.62
2022-10-13T08:56:11.590Z,9.73
2022-10-13T08:58:48.216Z,9.83
2022-10-13T09:01:23.794Z,9.94
2022-10-13T09:03:58.180Z,10.04
2022-10-13T09:06:33.719Z,10.16
2022-10-13T09:09:08.606Z,10.27
2022-10-13T09:11:42.964Z,10.37
2022-10-13T09:14:23.046Z,10.47
2022-10-13T09:16:56.901Z,10.57
2022-10-13T09:19:34.446Z,10.68
2022-10-13T09:22:23.982Z,10.78
2022-10-13T09:25:16.942Z,10.87
2022-10-13T09:27:51.291Z,10.96
2022-10-13T09:30:31.486Z,11.06
2022-10-13T09:33:20.137Z,11.16
2022-10-13T09:36:11.164Z,11.25
2022-10-13T09:38:45.093Z,11.33
2022-10-13T09:41:21.378Z,11.44
2022-10-13T09:44:11.628Z,11.54
2022-10-13T09:46:51.423Z,11.63
2022-10-13T09:49:34.852Z,11.71
2022-10-13T09:52:20.558Z,11.78
2022-10-13T09:54:54.375Z,11.86
2022-10-13T09:57:35.295Z,11.96
2022-10-13T10:00:17.425Z,12.05
2022-10-13T10:02:56.734Z,12.13
2022-10-13T10:05:35.630Z,12.21
2022-10-13T10:08:16.707Z,12.27
2022-10-13T10:10:48.565Z,12.34
2022-10-13T10:13:20.528Z,12.41
2022-10-13T10:16:02.118Z,12.48
2022-10-13T10:18:43.990Z,12.53
2022-10-13T10:21:24.574Z,12.58
2022-10-13T10:24:01.757Z,12.64
2022-10-13T10:26:46.725Z,12.70
2022-10-13T10:29:30.569Z,12.76
2022-10-13T10:32:18.441Z,12.82
2022-10-13T10:34:55.905Z,12.89
2022-10-13T10:37:44.567Z,12.94
2022-10-13T10:40:28.067Z,12.97
2022-10-13T10:43:31.272Z,13.00
2022-10-13T10:46:04.155Z,13.03
2022-10-13T10:48:40.404Z,13.10
2022-10-13T10:51:13.534Z,13.15
2022-10-13T10:53:56.459Z,13.21
2022-10-13T10:56:35.074Z,13.25
2022-10-13T10:59:24.066Z,13.28
2022-10-13T11:02:05.970Z,13.31
2022-10-13T11:04:44.599Z,13.34
2022-10-13T11:07:54.120Z,13.38
2022-10-13T11:10:27.325Z,13.38
2022-10-13T11:13:26.001Z,13.42
2022-10-13T11:15:57.788Z,13.46
2022-10-13T11:18:56.535Z,13.50
2022-10-13T11:22:07.183Z,13.55
2022-10-13T11:25:14.685Z,13.58
2022-10-13T11:27:47.180Z,13.61
2022-10-13T11:30:47.378Z,13.67
2022-10-13T11:33:53.083Z,13.69
2022-10-13T11:36:39.838Z,13.69
2022-10-13T11:39:59.477Z,13.71
2022-10-13T11:43:05.042Z,13.69
2022-10-13T11:46:06.618Z,13.70
2022-10-13T11:49:24.250Z,13.73
2022-10-13T11:52:13.343Z,13.75
2022-10-13T11:54:51.703Z,13.77
2022-10-13T11:57:26.097Z,13.82
2022-10-13T12:00:00.187Z,13.85
2022-10-13T12:02:34.354Z,13.87
2022-10-13T12:05:19.953Z,13.91
2022-10-13T12:07:53.566Z,13.92
2022-10-13T12:10:30.762Z,13.95
2022-10-13T12:13:04.374Z,13.98
2022-10-13T12:15:39.057Z,14.03
2022-10-13T12:18:25.899Z,14.06
2022-10-13T12:21:00.328Z,14.10
2022-10-13T12:23:33.713Z,14.12
2022-10-13T12:26:06.658Z,14.18
2022-10-13T12:28:51.072Z,14.19
2022-10-13T12:31:25.639Z,14.19
2022-10-13T12:33:59.841Z,14.16
2022-10-13T12:36:33.748Z,14.15
2022-10-13T12:39:11.780Z,14.16
2022-10-13T12:41:47.739Z,14.20
2022-10-13T12:44:22.061Z,14.21
2022-10-13T12:46:56.439Z,14.21
2022-10-13T12:49:30.103Z,14.19
2022-10-13T12:52:08.410Z,14.17
2022-10-13T12:54:47.667Z,14.20
2022-10-13T12:57:35.303Z,14.21
2022-10-13T13:00:24.271Z,14.19
2022-10-13T13:02:58.345Z,14.15
2022-10-13T13:05:35.821Z,14.16
2022-10-13T13:08:23.382Z,14.16
2022-10-13T13:11:00.373Z,14.16
2022-10-13T13:13:33.352Z,14.17
2022-10-13T13:16:19.229Z,14.21
2022-10-13T13:18:51.969Z,14.23
2022-10-13T13:21:24.352Z,14.26
2022-10-13T13:23:56.170Z,14.27
2022-10-13T13:26:28.237Z,14.26
2022-10-13T13:29:00.366Z,14.25
2022-10-13T13:31:32.211Z,14.24
2022-10-13T13:34:04.178Z,14.24
2022-10-13T13:36:36.067Z,14.23
2022-10-13T13:39:14.623Z,14.21
2022-10-13T13:41:48.111Z,14.22
2022-10-13T13:44:19.845Z,14.18
2022-10-13T13:46:53.241Z,14.17
2022-10-13T13:49:24.985Z,14.20
2022-10-13T13:51:56.711Z,14.20
2022-10-13T13:54:28.488Z,14.20
2022-10-13T13:57:01.396Z,14.18
2022-10-13T13:59:34.076Z,14.18
2022-10-13T14:02:06.717Z,14.18
2022-10-13T14:04:38.537Z,14.17
2022-10-13T14:07:10.746Z,14.18
2022-10-13T14:09:42.584Z,14.18
2022-10-13T14:12:14.861Z,14.14
2022-10-13T14:14:46.619Z,14.12
2022-10-13T14:17:18.403Z,14.09
2022-10-13T14:19:50.428Z,14.08
2022-10-13T14:22:22.844Z,14.08
2022-10-13T14:24:54.864Z,14.03
2022-10-13T14:27:26.886Z,14.02
2022-10-13T14:29:59.122Z,13.98
2022-10-13T14:32:31.557Z,13.97
2022-10-13T14:35:03.378Z,13.93
2022-10-13T14:37:35.679Z,13.93
2022-10-13T14:40:09.793Z,13.94
2022-10-13T14:42:42.636Z,13.92
2022-10-13T14:45:19.172Z,13.89
2022-10-13T14:47:52.747Z,13.87
2022-10-13T14:50:24.651Z,13.82
2022-10-13T14:53:00.574Z,13.77
2022-10-13T14:55:33.640Z,13.75
2022-10-13T14:58:05.540Z,13.77
2022-10-13T15:00:37.605Z,13.75
2022-10-13T15:03:14.756Z,13.70
2022-10-13T15:05:46.592Z,13.67
2022-10-13T15:08:18.627Z,13.67
2022-10-13T15:10:59.310Z,13.65
2022-10-13T15:13:31.978Z,13.60
2022-10-13T15:16:05.019Z,13.55
2022-10-13T15:18:37.644Z,13.53
2022-10-13T15:21:09.730Z,13.51
2022-10-13T15:23:42.208Z,13.48
2022-10-13T15:26:16.279Z,13.45
2022-10-13T15:28:50.277Z,13.41
2022-10-13T15:31:23.851Z,13.33
2022-10-13T15:33:56.317Z,13.29
2022-10-13T15:36:29.251Z,13.25
2022-10-13T15:39:01.192Z,13.20
2022-10-13T15:41:32.887Z,13.14
2022-10-13T15:44:05.051Z,13.09
2022-10-13T15:46:45.228Z,13.04
2022-10-13T15:49:26.644Z,12.97
2022-10-13T15:51:58.390Z,12.92
2022-10-13T15:54:30.300Z,12.86
2022-10-13T15:57:02.197Z,12.79
2022-10-13T15:59:34.109Z,12.74
2022-10-13T16:02:05.874Z,12.68
2022-10-13T16:04:37.858Z,12.63
2022-10-13T16:10:59.451Z,12.45
2022-10-13T16:13:31.229Z,12.40
2022-10-13T16:16:04.325Z,12.35
2022-10-13T16:18:40.297Z,12.31
2022-10-13T16:21:18.241Z,12.26
2022-10-13T16:23:51.303Z,12.21
2022-10-13T16:26:23.500Z,12.17
2022-10-13T16:28:58.471Z,12.13
2022-10-13T16:31:31.845Z,12.08
2022-10-13T16:34:03.748Z,12.05
2022-10-13T16:36:35.892Z,12.01
2022-10-13T16:39:07.828Z,11.97
2022-10-13T16:41:41.620Z,11.92
2022-10-13T16:44:13.965Z,11.88
2022-10-13T16:46:46.205Z,11.83
2022-10-13T16:49:18.045Z,11.78
2022-10-13T16:51:50.095Z,11.74
2022-10-13T16:54:22.001Z,11.70
2022-10-13T16:56:54.047Z,11.67
2022-10-13T16:59:53.481Z,11.65
2022-10-13T17:02:25.380Z,11.59
2022-10-13T17:04:57.175Z,11.56
2022-10-13T17:07:29.174Z,11.54
2022-10-13T17:10:03.204Z,11.53
2022-10-13T17:12:35.468Z,11.50
2022-10-13T17:15:35.846Z,11.48
2022-10-13T17:18:07.788Z,11.42
2022-10-13T17:20:41.258Z,11.39
2022-10-13T17:23:13.041Z,11.37
2022-10-13T17:25:44.966Z,11.36
2022-10-13T17:28:17.660Z,11.35
2022-10-13T17:30:59.818Z,11.29
2022-10-13T17:33:34.842Z,11.24
2022-10-13T17:36:10.117Z,11.21
2022-10-13T17:38:42.535Z,11.21
2022-10-13T17:41:15.123Z,11.21
2022-10-13T17:43:52.995Z,11.18
2022-10-13T17:46:41.841Z,11.14
2022-10-13T17:49:14.909Z,11.12
2022-10-13T17:51:51.003Z,11.12
2022-10-13T17:54:23.309Z,11.11
2022-10-13T17:57:00.383Z,11.09
2022-10-13T17:59:32.464Z,11.11
2022-10-13T18:02:04.483Z,11.12
2022-10-13T18:04:36.993Z,11.14
2022-10-13T18:07:08.862Z,11.13
2022-10-13T18:09:40.852Z,11.10
2022-10-13T18:12:13.109Z,11.07
2022-10-13T18:14:45.277Z,11.04
2022-10-13T18:17:17.005Z,11.00
2022-10-13T18:19:49.395Z,10.96
2022-10-13T18:22:21.290Z,10.94
2022-10-13T18:24:57.329Z,10.92
2022-10-13T18:27:29.324Z,10.88
2022-10-13T18:30:01.115Z,10.84
2022-10-13T18:32:34.657Z,10.83
2022-10-13T18:35:07.595Z,10.83
2022-10-13T18:37:39.712Z,10.83
2022-10-13T18:40:13.552Z,10.83
2022-10-13T18:42:49.640Z,10.82
2022-10-13T18:45:25.037Z,10.79
2022-10-13T18:47:59.613Z,10.77
2022-10-13T18:50:31.416Z,10.74
2022-10-13T18:53:03.445Z,10.73
2022-10-13T18:55:36.307Z,10.70
2022-10-13T18:58:08.056Z,10.68
2022-10-13T19:00:40.644Z,10.66
2022-10-13T19:03:13.343Z,10.63
2022-10-13T19:05:47.627Z,10.60
2022-10-13T19:08:19.481Z,10.55
2022-10-13T19:10:51.417Z,10.47
2022-10-13T19:13:23.198Z,10.41
2022-10-13T19:16:02.168Z,10.39
2022-10-13T19:18:34.163Z,10.36
2022-10-13T19:21:06.804Z,10.32
2022-10-13T19:23:42.066Z,10.29
2022-10-13T19:26:23.887Z,10.25
2022-10-13T19:29:00.521Z,10.22
2022-10-13T19:31:34.795Z,10.16
2022-10-13T19:34:13.412Z,10.10
2022-10-13T19:36:46.992Z,10.09
2022-10-13T19:39:22.558Z,10.04
2022-10-13T19:41:56.798Z,10.02
2022-10-13T19:44:29.082Z,9.99
2022-10-13T19:47:01.231Z,9.96
2022-10-13T19:49:33.008Z,9.93
2022-10-13T19:52:05.002Z,9.89
2022-10-13T19:54:37.274Z,9.88
2022-10-13T19:57:10.203Z,9.87
2022-10-13T19:59:46.691Z,9.86
2022-10-13T20:02:20.048Z,9.81
2022-10-13T20:04:53.183Z,9.78
2022-10-13T20:07:25.287Z,9.75
2022-10-13T20:09:57.492Z,9.70
2022-10-13T20:12:29.407Z,9.68
2022-10-13T20:15:01.820Z,9.66
2022-10-13T20:17:33.838Z,9.62
2022-10-13T20:20:06.649Z,9.60
2022-10-13T20:22:39.816Z,9.58
2022-10-13T20:25:14.852Z,9.55
2022-10-13T20:27:47.071Z,9.52
2022-10-13T20:30:19.248Z,9.49
2022-10-13T20:32:50.974Z,9.46
2022-10-13T20:35:22.679Z,9.45
2022-10-13T20:37:55.050Z,9.43
2022-10-13T20:40:27.107Z,9.41
2022-10-13T20:42:59.124Z,9.39
2022-10-13T20:45:30.921Z,9.36
2022-10-13T20:48:02.697Z,9.32
2022-10-13T20:50:35.078Z,9.29
2022-10-13T20:53:07.110Z,9.27
2022-10-13T20:55:43.543Z,9.27
2022-10-13T20:58:15.997Z,9.27
2022-10-13T21:00:47.891Z,9.25
2022-10-13T21:03:20.515Z,9.22
2022-10-13T21:05:54.817Z,9.18
2022-10-13T21:08:27.137Z,9.16
2022-10-13T21:11:03.052Z,9.14
2022-10-13T21:13:35.163Z,9.11
2022-10-13T21:16:13.054Z,9.10
2022-10-13T21:18:49.247Z,9.08
2022-10-13T21:21:27.027Z,9.05
2022-10-13T21:24:02.046Z,9.04
2022-10-13T21:26:35.669Z,9.03
2022-10-13T21:29:08.629Z,9.00
2022-10-13T21:31:40.660Z,8.97
2022-10-13T21:34:13.740Z,8.96
2022-10-13T21:36:45.691Z,8.95
2022-10-13T21:39:18.754Z,8.95
2022-10-13T21:41:51.159Z,8.95
2022-10-13T21:44:23.100Z,8.93
2022-10-13T21:46:55.103Z,8.89
2022-10-13T21:49:27.524Z,8.87
2022-10-13T21:51:59.415Z,8.85
2022-10-13T21:54:31.184Z,8.85
2022-10-13T21:57:04.862Z,8.84
2022-10-13T21:59:36.662Z,8.83
2022-10-13T22:02:08.681Z,8.82
2022-10-13T22:04:40.643Z,8.83
2022-10-13T22:07:12.369Z,8.81
2022-10-13T22:09:44.150Z,8.80
2022-10-13T22:12:17.017Z,8.77
2022-10-13T22:14:49.033Z,8.73
2022-10-13T22:17:28.499Z,8.68
2022-10-13T22:20:00.328Z,8.66
2022-10-13T22:22:32.081Z,8.65
2022-10-13T22:25:03.884Z,8.65
2022-10-13T22:27:37.397Z,8.63
2022-10-13T22:30:11.333Z,8.59
2022-10-13T22:32:43.155Z,8.57
2022-10-13T22:35:15.059Z,8.59
2022-10-13T22:37:46.793Z,8.60
2022-10-13T22:40:19.129Z,8.61
2022-10-13T22:42:50.954Z,8.60
2022-10-13T22:45:22.716Z,8.58
2022-10-13T22:47:54.493Z,8.55
2022-10-13T22:50:26.281Z,8.54
2022-10-13T22:52:58.053Z,8.53
2022-10-13T22:55:29.944Z,8.52
2022-10-13T22:58:01.947Z,8.52
2022-10-13T23:00:35.262Z,8.53
2022-10-13T23:03:08.137Z,8.54
2022-10-13T23:05:43.422Z,8.52
2022-10-13T23:08:16.043Z,8.53
2022-10-13T23:10:47.893Z,8.53
2022-10-13T23:13:20.507Z,8.51
2022-10-13T23:15:54.122Z,8.52
2022-10-13T23:18:31.668Z,8.52
2022-10-13T23:21:08.068Z,8.50
2022-10-13T23:23:39.995Z,8.49
2022-10-13T23:26:14.679Z,8.48
2022-10-13T23:28:48.320Z,8.47
2022-10-13T23:31:20.460Z,8.47
2022-10-13T23:33:53.354Z,8.48
2022-10-13T23:36:27.965Z,8.49
2022-10-13T23:39:03.942Z,8.50
2022-10-13T23:41:39.392Z,8.50
2022-10-13T23:44:11.744Z,8.51
2022-10-13T23:46:43.665Z,8.52
2022-10-13T23:49:18.056Z,8.52
2022-10-13T23:51:50.035Z,8.51
2022-10-13T23:54:21.893Z,8.52
2022-10-13T23:56:53.740Z,8.47
2022-10-13T23:59:25.789Z,8.48
